Time;durP1;ratioP1;P1;durP2;ratioP2;P2;SDS_P1;SDS_P2;PMS_P1;PMS_P2;Temp;Humidity;BMP_temperature;BMP_pressure;BME280_temperature;BME280_humidity;BME280_pressure;Samples;Min_cycle;Max_cycle;Signal;HPM_P1;HPM_P2
2022/09/21 00:01:33;;;;;;;4.88;2.05;;;;;;;7.11;100.00;101578.75;6344761;27;20054;-96
2022/09/21 00:04:35;;;;;;;4.57;2.15;;;;;;;7.11;100.00;101581.31;6342221;27;20035;-96
2022/09/21 00:07:38;;;;;;;7.63;2.50;;;;;;;7.09;100.00;101572.84;6331381;27;20474;-96
2022/09/21 00:10:40;;;;;;;4.85;2.30;;;;;;;7.10;100.00;101580.50;6336180;27;20433;-96
2022/09/21 00:13:44;;;;;;;4.97;2.55;;;;;;;7.06;100.00;101576.41;6325839;28;20040;-96
2022/09/21 00:16:46;;;;;;;6.20;2.17;;;;;;;7.07;100.00;101578.03;6320355;28;20520;-96
2022/09/21 00:19:48;;;;;;;5.78;2.35;;;;;;;7.04;100.00;101574.81;6329820;28;20110;-96
2022/09/21 00:22:51;;;;;;;4.22;2.40;;;;;;;7.04;100.00;101574.81;6335499;28;20120;-96
2022/09/21 00:26:07;;;;;;;5.88;2.35;;;;;;;7.06;100.00;101584.13;6340628;27;20043;-96
2022/09/21 00:29:10;;;;;;;4.80;2.40;;;;;;;7.04;100.00;101580.78;6328309;28;20054;-96
2022/09/21 00:32:12;;;;;;;4.30;2.72;;;;;;;7.03;100.00;101591.13;6344548;28;20330;-96
2022/09/21 00:35:14;;;;;;;3.88;2.17;;;;;;;7.02;100.00;101585.16;6334113;28;20425;-96
2022/09/21 00:38:16;;;;;;;5.25;2.38;;;;;;;7.01;100.00;101583.50;6325835;27;20036;-96
2022/09/21 00:41:19;;;;;;;6.97;2.25;;;;;;;7.05;100.00;101599.63;6337558;28;20046;-96
2022/09/21 00:44:21;;;;;;;4.13;2.10;;;;;;;6.97;100.00;101594.00;6351738;27;20492;-96
2022/09/21 00:47:44;;;;;;;5.53;2.38;;;;;;;6.94;100.00;101589.84;6353745;27;20036;-96
2022/09/21 00:50:52;;;;;;;4.25;2.30;;;;;;;6.87;100.00;101588.44;6313279;27;20515;-96
2022/09/21 00:54:01;;;;;;;4.57;1.98;;;;;;;6.84;100.00;101593.75;6307326;27;20052;-96
2022/09/21 00:57:04;;;;;;;2.75;1.90;;;;;;;6.82;100.00;101596.38;6321737;28;20468;-96
2022/09/21 01:00:08;;;;;;;4.60;2.15;;;;;;;6.76;100.00;101595.81;6334679;27;20342;-96
2022/09/21 01:03:11;;;;;;;4.72;2.38;;;;;;;6.71;100.00;101598.63;6328359;28;20039;-96
2022/09/21 01:06:16;;;;;;;4.93;2.33;;;;;;;6.64;100.00;101592.09;6338844;27;20401;-96
2022/09/21 01:09:19;;;;;;;4.63;2.35;;;;;;;6.64;100.00;101602.38;6326935;27;20036;-96
2022/09/21 01:13:05;;;;;;;3.95;2.50;;;;;;;6.60;100.00;101596.50;6328654;27;20059;-96
2022/09/21 01:16:38;;;;;;;4.93;2.92;;;;;;;6.57;100.00;101604.38;6235583;28;20107;-96
2022/09/21 01:19:49;;;;;;;5.05;2.42;;;;;;;6.59;100.00;101610.28;6220161;28;20127;-96
2022/09/21 01:23:15;;;;;;;3.35;2.17;;;;;;;6.66;100.00;101605.72;6217413;28;20045;-95
2022/09/21 01:26:57;;;;;;;5.45;2.20;;;;;;;6.61;100.00;101613.63;6223872;28;20053;-96
2022/09/21 01:30:04;;;;;;;3.78;2.45;;;;;;;6.59;100.00;101617.19;6230257;28;20045;-96
2022/09/21 01:33:15;;;;;;;4.50;2.58;;;;;;;6.57;100.00;101617.25;6212557;28;20042;-96
2022/09/21 01:36:27;;;;;;;3.97;2.33;;;;;;;6.57;100.00;101621.56;6217316;28;20144;-96
2022/09/21 01:39:34;;;;;;;6.03;2.40;;;;;;;6.54;100.00;101619.13;6211474;28;20051;-96
2022/09/21 01:42:40;;;;;;;5.47;2.72;;;;;;;6.57;100.00;101616.41;6220358;28;20065;-96
2022/09/21 01:45:47;;;;;;;5.25;2.20;;;;;;;6.54;100.00;101619.13;6226241;28;20471;-96
2022/09/21 01:48:53;;;;;;;3.72;1.92;;;;;;;6.47;100.00;101615.97;6224258;28;20069;-96
2022/09/21 01:52:09;;;;;;;4.28;2.00;;;;;;;6.51;100.00;101624.38;6257081;28;20075;-96
2022/09/21 01:55:27;;;;;;;2.13;1.63;;;;;;;6.52;100.00;101624.31;6331951;27;20047;-96
2022/09/21 01:58:36;;;;;;;4.15;2.13;;;;;;;6.43;100.00;101614.44;6325226;28;20525;-95
2022/09/21 02:01:44;;;;;;;2.92;1.77;;;;;;;6.44;100.00;101616.13;6324729;27;20047;-95
2022/09/21 02:04:47;;;;;;;5.07;2.20;;;;;;;6.39;100.00;101616.31;6322670;28;20323;-95
2022/09/21 02:07:51;;;;;;;3.60;2.30;;;;;;;6.36;100.00;101613.03;6328454;27;20047;-95
2022/09/21 02:10:53;;;;;;;4.07;2.25;;;;;;;6.31;100.00;101622.69;6320090;28;20036;-95
2022/09/21 02:13:55;;;;;;;4.00;2.35;;;;;;;6.24;100.00;101614.44;6330413;27;20121;-95
2022/09/21 02:17:32;;;;;;;5.75;2.75;;;;;;;6.27;100.00;101623.75;6323287;27;20040;-96
2022/09/21 02:20:45;;;;;;;4.07;2.60;;;;;;;6.20;100.00;101608.56;6318802;27;20097;-94
2022/09/21 02:24:12;;;;;;;4.95;2.30;;;;;;;6.19;100.00;101608.66;6335047;28;20409;-95
2022/09/21 02:27:31;;;;;;;5.32;2.50;;;;;;;6.14;100.00;101608.84;6328696;27;20048;-95
2022/09/21 02:30:34;;;;;;;4.25;2.78;;;;;;;6.12;100.00;101612.38;6343355;27;20039;-95
2022/09/21 02:34:17;;;;;;;4.03;2.67;;;;;;;6.11;100.00;101618.41;6336488;28;20043;-95
2022/09/21 02:37:55;;;;;;;8.93;2.92;;;;;;;6.09;100.00;101605.63;6252542;28;20060;-95
2022/09/21 02:41:23;;;;;;;5.38;2.85;;;;;;;6.09;100.00;101609.91;6158288;28;20141;-94
2022/09/21 02:44:32;;;;;;;6.70;2.80;;;;;;;6.05;100.00;101606.66;6153634;28;20047;-95
2022/09/21 02:48:02;;;;;;;4.70;2.50;;;;;;;6.04;100.00;101603.25;6140029;28;20059;-95
2022/09/21 02:51:18;;;;;;;7.40;2.90;;;;;;;6.02;100.00;101604.22;6145291;28;20414;-94
2022/09/21 02:54:24;;;;;;;5.18;2.97;;;;;;;5.95;100.00;101607.94;6159131;28;20113;-93
2022/09/21 02:57:26;;;;;;;5.85;3.03;;;;;;;6.00;100.00;101608.59;6161860;28;20054;-94
2022/09/21 03:00:28;;;;;;;6.43;2.90;;;;;;;5.98;100.00;101613.78;6153661;28;20043;-94
2022/09/21 03:03:30;;;;;;;6.22;3.65;;;;;;;5.97;100.00;101616.44;6159799;28;20066;-94
2022/09/21 03:06:33;;;;;;;6.60;2.78;;;;;;;5.95;100.00;101618.22;6159952;28;20050;-94
2022/09/21 03:09:35;;;;;;;7.82;3.00;;;;;;;5.98;100.00;101623.22;6162747;28;20235;-94
2022/09/21 03:12:37;;;;;;;8.00;3.55;;;;;;;5.93;100.00;101617.41;6203907;28;20190;-94
2022/09/21 03:15:40;;;;;;;5.85;2.97;;;;;;;5.95;100.00;101618.22;6216036;28;20045;-94
2022/09/21 03:18:43;;;;;;;5.57;3.15;;;;;;;5.97;100.00;101624.16;6310409;28;20040;-94
2022/09/21 03:21:44;;;;;;;6.18;3.17;;;;;;;5.90;100.00;101620.13;6331863;27;20453;-94
2022/09/21 03:24:47;;;;;;;6.13;3.70;;;;;;;5.92;100.00;101628.63;6329648;27;20047;-94
2022/09/21 03:27:52;;;;;;;5.78;3.40;;;;;;;5.91;100.00;101619.22;6338386;27;20032;-94
2022/09/21 03:30:54;;;;;;;7.47;3.13;;;;;;;5.95;100.00;101631.06;6331416;28;20202;-94
2022/09/21 03:33:56;;;;;;;6.18;3.00;;;;;;;5.96;100.00;101630.16;6339860;27;20032;-93
2022/09/21 03:37:03;;;;;;;5.55;2.70;;;;;;;5.92;100.00;101631.19;6339339;27;20047;-94
2022/09/21 03:40:05;;;;;;;4.53;2.50;;;;;;;5.88;100.00;101630.47;6344024;27;20127;-94
2022/09/21 03:43:07;;;;;;;4.38;2.22;;;;;;;5.85;100.00;101627.19;6343785;27;20468;-94
2022/09/21 03:46:09;;;;;;;4.30;2.05;;;;;;;5.80;100.00;101635.09;6331349;27;20040;-94
2022/09/21 03:49:10;;;;;;;5.80;2.63;;;;;;;5.79;100.00;101638.56;6323159;27;20764;-94
2022/09/21 03:52:13;;;;;;;4.45;2.50;;;;;;;5.82;100.00;101639.25;6324662;27;20040;-93
2022/09/21 03:55:14;;;;;;;2.78;2.15;;;;;;;5.79;100.00;101641.97;6326745;28;20166;-93
2022/09/21 03:58:16;;;;;;;4.28;1.88;;;;;;;5.78;100.00;101642.84;6332807;28;20505;-93
2022/09/21 04:01:18;;;;;;;6.18;2.13;;;;;;;5.73;100.00;101641.38;6339874;27;20197;-94
2022/09/21 04:04:20;;;;;;;4.90;1.90;;;;;;;5.73;100.00;101637.06;6335042;27;20044;-94
2022/09/21 04:07:22;;;;;;;4.50;1.80;;;;;;;5.69;100.00;101638.09;6340404;27;20140;-93
2022/09/21 04:10:28;;;;;;;2.67;1.70;;;;;;;5.68;100.00;101643.28;6345137;27;20117;-94
2022/09/21 04:13:29;;;;;;;2.35;1.35;;;;;;;5.62;100.00;101636.69;6330006;27;20123;-94
2022/09/21 04:16:31;;;;;;;3.20;1.77;;;;;;;5.60;100.00;101641.88;6324860;28;20524;-93
2022/09/21 04:19:33;;;;;;;3.08;1.70;;;;;;;5.59;100.00;101641.94;6333753;28;20036;-94
2022/09/21 04:22:38;;;;;;;3.63;1.50;;;;;;;5.53;100.00;101634.47;6346066;27;20116;-93
2022/09/21 04:25:47;;;;;;;3.92;1.58;;;;;;;5.50;100.00;101638.00;6340629;27;20527;-94
2022/09/21 04:28:50;;;;;;;6.10;1.90;;;;;;;5.51;100.00;101643.97;6325714;28;20032;-94
2022/09/21 04:31:52;;;;;;;3.83;2.30;;;;;;;5.47;100.00;101637.28;6318085;28;20081;-95
2022/09/21 04:34:54;;;;;;;3.10;2.25;;;;;;;5.47;100.00;101645.00;6334605;28;20236;-95
2022/09/21 04:37:56;;;;;;;4.20;2.40;;;;;;;5.46;100.00;101641.56;6331656;28;20412;-94
2022/09/21 04:40:58;;;;;;;6.05;2.78;;;;;;;5.44;100.00;101637.38;6326740;28;20055;-93
2022/09/21 04:44:00;;;;;;;5.72;2.40;;;;;;;5.40;100.00;101644.41;6321975;28;20031;-93
2022/09/21 04:47:02;;;;;;;5.80;3.00;;;;;;;5.37;100.00;101647.09;6326170;28;20160;-93
2022/09/21 04:50:05;;;;;;;4.60;2.92;;;;;;;5.35;100.00;101641.16;6334255;28;20047;-92
2022/09/21 04:53:06;;;;;;;7.38;2.85;;;;;;;5.38;100.00;101649.56;6331431;28;20116;-94
2022/09/21 04:56:11;;;;;;;7.72;3.78;;;;;;;5.37;100.00;101653.06;6325738;28;20043;-94
2022/09/21 04:59:15;;;;;;;8.02;3.55;;;;;;;5.42;100.00;101652.88;6338834;28;20051;-94
2022/09/21 05:02:16;;;;;;;6.28;3.55;;;;;;;5.39;100.00;101658.09;6318959;28;20043;-94
2022/09/21 05:05:18;;;;;;;8.85;3.25;;;;;;;5.37;100.00;101665.06;6339514;28;20067;-94
2022/09/21 05:11:45;;;;;;;5.60;3.20;;;;;;;5.35;100.00;101657.41;6335773;28;20051;-95
2022/09/21 05:14:47;;;;;;;5.50;3.10;;;;;;;5.39;100.00;101664.09;6331324;28;20067;-95
2022/09/21 05:17:49;;;;;;;6.80;3.63;;;;;;;5.39;100.00;101666.66;6336759;28;20041;-94
2022/09/21 05:21:00;;;;;;;7.18;3.70;;;;;;;5.38;100.00;101664.97;6325454;28;20035;-96
2022/09/21 05:24:02;;;;;;;;;;;;;;;5.40;100.00;101667.50;6317924;28;20044;-95
2022/09/21 05:27:04;;;;;;;6.45;3.20;;;;;;;5.40;100.00;101663.19;6326693;28;20400;-94
2022/09/21 05:30:08;;;;;;;5.22;2.80;;;;;;;5.42;100.00;101670.84;6322351;28;20043;-95
2022/09/21 05:33:15;;;;;;;6.57;3.22;;;;;;;5.43;100.00;101675.06;6330262;27;21220;-95
2022/09/21 05:36:35;;;;;;;6.25;3.20;;;;;;;5.45;100.00;101675.84;6326602;27;20640;-96
2022/09/21 05:39:37;;;;;;;5.03;3.30;;;;;;;5.46;100.00;101672.38;6327731;27;20047;-95
2022/09/21 05:42:40;;;;;;;4.10;2.85;;;;;;;5.51;100.00;101679.91;6315831;27;20575;-96
2022/09/21 05:46:04;;;;;;;4.30;2.58;;;;;;;5.55;100.00;101681.47;6326267;27;20031;-95
2022/09/21 05:49:35;;;;;;;5.05;3.08;;;;;;;5.55;100.00;101686.63;6314853;27;20047;-96
2022/09/21 05:52:53;;;;;;;10.55;2.83;;;;;;;5.54;100.00;101692.63;6347254;27;20417;-96
2022/09/21 05:56:05;;;;;;;6.38;2.53;;;;;;;5.59;100.00;101693.31;6332122;27;20051;-96
2022/09/21 05:59:46;;;;;;;5.85;2.78;;;;;;;5.62;100.00;101693.19;6305332;28;20047;-96
2022/09/21 06:03:12;;;;;;;7.20;3.00;;;;;;;5.63;100.00;101689.69;6333173;27;20353;-96
2022/09/21 06:06:19;;;;;;;10.38;3.65;;;;;;;5.69;100.00;101697.19;6318781;27;20050;-95
2022/09/21 06:09:21;;;;;;;6.50;3.58;;;;;;;5.71;100.00;101705.63;6319031;27;20506;-95
2022/09/21 06:12:24;;;;;;;5.57;3.20;;;;;;;5.81;100.00;101706.13;6323467;28;20498;-95
2022/09/21 06:15:26;;;;;;;8.10;3.45;;;;;;;5.86;100.00;101719.59;6332184;27;20044;-96
2022/09/21 06:18:28;;;;;;;6.25;3.33;;;;;;;5.89;100.00;101716.09;6323946;28;20051;-96
2022/09/21 06:21:30;;;;;;;5.63;3.60;;;;;;;5.96;100.00;101714.97;6324358;27;20497;-96
2022/09/21 06:24:32;;;;;;;7.95;4.00;;;;;;;5.95;100.00;101718.44;6325297;28;20031;-95
2022/09/21 06:27:34;;;;;;;7.30;4.13;;;;;;;5.98;100.00;101720.88;6333464;27;20451;-95
2022/09/21 06:30:38;;;;;;;8.80;4.15;;;;;;;6.03;100.00;101719.81;6325002;27;20036;-95
2022/09/21 06:33:40;;;;;;;9.02;4.28;;;;;;;6.06;100.00;101720.56;6335376;27;20046;-95
2022/09/21 06:36:47;;;;;;;7.60;4.55;;;;;;;6.09;100.00;101718.72;6321452;27;20047;-95
2022/09/21 06:39:49;;;;;;;11.30;4.53;;;;;;;6.17;100.00;101715.84;6325759;27;20040;-95
2022/09/21 06:42:58;;;;;;;8.38;4.38;;;;;;;6.23;100.00;101715.56;6301423;28;20040;-94
2022/09/21 06:46:01;;;;;;;9.82;5.05;;;;;;;6.28;100.00;101728.25;6330528;27;20066;-95
2022/09/21 06:49:04;;;;;;;15.98;7.57;;;;;;;6.30;100.00;101723.88;6313300;28;20043;-95
2022/09/21 06:52:06;;;;;;;18.55;8.50;;;;;;;6.32;100.00;101724.66;6303590;28;20044;-95
2022/09/21 06:55:09;;;;;;;14.60;6.05;;;;;;;6.32;100.00;101724.66;6324919;28;20440;-95
2022/09/21 06:58:11;;;;;;;6.82;4.18;;;;;;;6.32;100.00;101724.66;6329964;28;20050;-95
2022/09/21 07:01:14;;;;;;;14.20;6.90;;;;;;;6.35;100.00;101729.66;6329766;28;20588;-95
2022/09/21 07:04:16;;;;;;;27.35;11.32;;;;;;;6.36;100.00;101728.75;6342459;27;20044;-94
2022/09/21 07:07:24;;;;;;;12.65;5.88;;;;;;;6.40;100.00;101732.88;6332983;27;21095;-95
2022/09/21 07:10:27;;;;;;;7.63;4.10;;;;;;;6.44;100.00;101732.69;6327243;27;20058;-95
2022/09/21 07:13:29;;;;;;;7.15;3.80;;;;;;;6.49;100.00;101734.25;6327913;27;20050;-95
2022/09/21 07:16:32;;;;;;;5.88;3.50;;;;;;;6.52;100.00;101734.94;6346873;27;20097;-95
2022/09/21 07:19:35;;;;;;;9.52;3.60;;;;;;;6.53;100.00;101730.63;6342930;27;20520;-95
2022/09/21 07:22:37;;;;;;;6.43;3.67;;;;;;;6.60;100.00;101740.56;6335705;27;20468;-96
2022/09/21 07:25:39;;;;;;;6.20;3.97;;;;;;;6.65;100.00;101748.09;6338588;27;20093;-96
2022/09/21 07:28:41;;;;;;;5.55;3.45;;;;;;;6.69;100.00;101747.09;6323518;27;20061;-96
2022/09/21 07:31:44;;;;;;;6.60;3.33;;;;;;;6.76;100.00;101742.47;6347803;27;20051;-95
2022/09/21 07:34:46;;;;;;;9.23;4.25;;;;;;;6.81;100.00;101753.44;6339477;27;20413;-96
2022/09/21 07:37:48;;;;;;;8.02;4.68;;;;;;;6.85;100.00;101752.38;6330624;27;20043;-96
2022/09/21 07:40:50;;;;;;;7.35;4.40;;;;;;;6.95;100.00;101750.25;6324545;27;20047;-96
2022/09/21 07:43:53;;;;;;;8.63;4.57;;;;;;;7.04;100.00;101748.09;6312133;28;20118;-96
2022/09/21 07:46:55;;;;;;;11.43;4.72;;;;;;;7.12;100.00;101748.59;6313189;28;20059;-96
2022/09/21 07:49:57;;;;;;;9.52;5.15;;;;;;;7.21;100.00;101751.69;6308334;28;20052;-95
2022/09/21 07:53:01;;;;;;;10.02;5.35;;;;;;;7.29;100.00;101750.41;6323203;28;20070;-95
2022/09/21 07:56:15;;;;;;;11.50;5.72;;;;;;;7.37;100.00;101750.06;6337548;27;20040;-96
2022/09/21 07:59:19;;;;;;;6.93;5.25;;;;;;;7.41;100.00;101751.59;6326353;27;20051;-95
2022/09/21 08:02:21;;;;;;;11.60;5.60;;;;;;;7.46;100.00;101756.53;6318443;27;20469;-95
2022/09/21 08:05:23;;;;;;;11.38;5.65;;;;;;;7.53;100.00;101755.38;6321758;28;20536;-95
2022/09/21 08:08:25;;;;;;;11.50;5.82;;;;;;;7.62;100.00;101756.66;6328652;27;20046;-95
2022/09/21 08:11:29;;;;;;;7.63;5.63;;;;;;;7.70;100.00;101759.69;6340501;27;20044;-95
2022/09/21 08:14:31;;;;;;;11.85;5.50;;;;;;;7.79;100.00;101758.44;6321620;28;20074;-94
2022/09/21 08:17:33;;;;;;;11.20;6.03;;;;;;;7.85;100.00;101755.56;6325590;28;20433;-95
2022/09/21 08:20:36;;;;;;;11.73;5.32;;;;;;;7.90;100.00;101751.88;6333395;28;20444;-94
2022/09/21 08:23:39;;;;;;;10.75;4.13;;;;;;;7.96;100.00;101758.47;6328332;28;20480;-95
2022/09/21 08:26:41;;;;;;;12.80;4.90;;;;;;;8.09;100.00;101762.13;6328928;27;20498;-95
2022/09/21 08:29:43;;;;;;;12.27;5.25;;;;;;;8.18;100.00;101759.09;6311031;28;20177;-94
2022/09/21 08:32:45;;;;;;;10.23;4.50;;;;;;;8.32;100.00;101760.16;6328281;28;20275;-94
2022/09/21 08:35:57;;;;;;;8.95;3.85;;;;;;;8.39;100.00;101752.06;6322860;28;20043;-94
2022/09/21 08:38:59;;;;;;;9.15;3.75;;;;;;;8.51;100.00;101754.94;6322386;28;20035;-94
2022/09/21 08:42:33;;;;;;;9.00;3.55;;;;;;;8.65;100.00;101755.09;6321396;28;20606;-94
2022/09/21 08:45:42;;;;;;;9.27;3.97;;;;;;;8.89;100.00;101757.31;6322859;28;20059;-94
2022/09/21 08:48:58;;;;;;;5.18;2.58;;;;;;;9.03;100.00;101754.84;6346422;28;20055;-94
2022/09/21 08:52:08;;;;;;;10.52;2.38;;;;;;;9.17;100.00;101761.88;6325341;28;20028;-94
2022/09/21 08:55:17;;;;;;;8.93;2.65;;;;;;;9.26;100.00;101751.03;6317729;28;20358;-95
2022/09/21 08:58:27;;;;;;;8.15;3.30;;;;;;;9.39;100.00;101753.78;6320599;28;20055;-94
2022/09/21 09:01:50;;;;;;;10.00;2.75;;;;;;;9.49;100.00;101752.41;6323620;28;20048;-95
2022/09/21 09:04:59;;;;;;;9.75;3.65;;;;;;;9.64;100.00;101761.88;6323650;28;20148;-94
2022/09/21 09:08:08;;;;;;;5.65;2.30;;;;;;;9.70;100.00;101758.94;6322141;27;20045;-94
2022/09/21 09:11:42;;;;;;;5.15;1.70;;;;;;;9.83;100.00;101763.44;6325165;28;20036;-94
2022/09/21 09:15:21;;;;;;;6.38;1.85;;;;;;;9.94;100.00;101761.09;6326990;27;20036;-95
2022/09/21 09:18:34;;;;;;;5.13;2.63;;;;;;;10.04;100.00;101762.25;6335103;27;20478;-94
2022/09/21 09:21:43;;;;;;;7.55;2.20;;;;;;;10.08;100.00;101766.28;6334074;27;20338;-95
2022/09/21 09:24:51;;;;;;;8.18;1.80;;;;;;;10.24;100.00;101770.63;6320194;28;20358;-94
2022/09/21 09:27:58;;;;;;;7.80;1.90;;;;;;;10.26;100.00;101763.56;6331270;28;20449;-95
2022/09/21 09:31:27;;;;;;;5.50;1.70;;;;;;;10.32;100.00;101764.09;6319114;28;20605;-95
2022/09/21 09:34:42;;;;;;;7.05;2.05;;;;;;;10.44;100.00;101772.91;6335314;27;20057;-95
2022/09/21 09:37:46;;;;;;;3.40;0.85;;;;;;;10.49;100.00;101767.47;6336980;27;20040;-96
2022/09/21 09:41:07;;;;;;;1.88;1.05;;;;;;;10.61;100.00;101773.66;6332720;27;20051;-96
2022/09/21 09:44:24;;;;;;;6.25;1.70;;;;;;;10.72;100.00;101776.47;6331111;27;20039;-96
2022/09/21 09:48:04;;;;;;;6.75;1.60;;;;;;;10.85;100.00;101773.97;6338360;27;20031;-96
2022/09/21 09:51:11;;;;;;;6.25;1.63;;;;;;;10.85;100.00;101772.19;6331428;27;20062;-96
2022/09/21 09:54:16;;;;;;;5.68;2.05;;;;;;;11.01;100.00;101774.72;6335656;27;20039;-96
2022/09/21 09:57:27;;;;;;;4.63;1.40;;;;;;;11.08;100.00;101769.97;6349358;27;20052;-96
2022/09/21 10:00:33;;;;;;;4.03;1.20;;;;;;;11.15;100.00;101763.50;6343591;27;20040;-96
2022/09/21 10:03:37;;;;;;;4.50;1.20;;;;;;;11.27;100.00;101762.72;6352503;27;20433;-96
2022/09/21 10:06:40;;;;;;;4.95;1.58;;;;;;;11.41;100.00;101765.31;6335569;28;20039;-96
2022/09/21 10:09:56;;;;;;;3.70;1.30;;;;;;;11.54;100.00;101764.53;6355960;27;20303;-96
2022/09/21 10:13:23;;;;;;;6.38;1.60;;;;;;;11.54;100.00;101764.53;6352535;27;20047;-96
2022/09/21 10:16:25;;;;;;;4.70;1.98;;;;;;;11.68;100.00;101756.72;6372667;27;20077;-96
2022/09/21 10:19:30;;;;;;;3.75;1.92;;;;;;;11.74;100.00;101760.69;6350875;27;20055;-96
2022/09/21 10:22:35;;;;;;;5.65;1.70;;;;;;;11.76;100.00;101759.66;6367712;27;20059;-96
2022/09/21 10:25:49;;;;;;;7.57;1.77;;;;;;;11.80;100.00;101753.34;6366879;27;20484;-96
2022/09/21 10:29:25;;;;;;;4.28;1.42;;;;;;;11.86;100.00;101754.69;6348105;28;20031;-96
2022/09/21 10:33:24;;;;;;;2.92;1.42;;;;;;;11.99;100.00;101754.75;6371877;28;20035;-96
2022/09/21 10:48:20;;;;;;;6.10;1.23;;;;;;;12.37;100.00;101748.78;6182992;28;20059;-96
2022/09/21 10:51:33;;;;;;;6.10;1.05;;;;;;;12.33;100.00;101750.78;6140657;28;20620;-96
2022/09/21 10:54:38;;;;;;;1.80;0.82;;;;;;;12.51;100.00;101740.91;6144282;28;20067;-96
2022/09/21 10:57:41;;;;;;;3.30;0.70;;;;;;;12.59;100.00;101746.41;6143785;28;20050;-95
2022/09/21 11:00:50;;;;;;;4.05;0.90;;;;;;;12.75;100.00;101743.63;6141856;28;20061;-96
2022/09/21 11:04:07;;;;;;;4.55;0.80;;;;;;;12.80;100.00;101743.31;6137235;28;20039;-96
2022/09/21 11:07:26;;;;;;;3.80;0.90;;;;;;;12.79;100.00;101739.03;6125424;28;20070;-95
2022/09/21 11:11:02;;;;;;;2.28;0.65;;;;;;;12.79;100.00;101726.88;6135318;28;20055;-95
2022/09/21 11:14:33;;;;;;;3.33;0.73;;;;;;;12.98;100.00;101739.44;6153150;28;20987;-94
2022/09/21 11:18:02;;;;;;;5.28;1.05;;;;;;;13.15;100.00;101741.69;6160265;28;20059;-96
2022/09/21 11:21:42;;;;;;;2.95;0.70;;;;;;;13.34;100.00;101743.00;6143068;29;20182;-96
2022/09/21 11:25:01;;;;;;;3.97;0.75;;;;;;;13.45;100.00;101742.25;6135863;28;20029;-94
2022/09/21 11:28:13;;;;;;;6.95;0.80;;;;;;;13.50;100.00;101740.97;6138920;28;20046;-94
2022/09/21 11:31:24;;;;;;;2.58;0.60;;;;;;;13.56;94.93;101735.34;6130093;28;20047;-94
2022/09/21 11:34:57;;;;;;;11.05;1.45;;;;;;;13.76;95.72;101735.63;6144593;28;20146;-95
2022/09/21 11:38:03;;;;;;;3.70;0.75;;;;;;;13.84;96.77;101735.94;6134293;28;20047;-95
2022/09/21 11:41:47;;;;;;;4.75;0.80;;;;;;;13.84;89.91;101730.72;6136429;28;20528;-95
2022/09/21 11:44:56;;;;;;;4.70;1.40;;;;;;;13.86;91.57;101736.63;6148724;28;20089;-94
2022/09/21 11:48:43;;;;;;;4.43;0.70;;;;;;;13.93;89.64;101727.41;6125291;28;20421;-94
2022/09/21 11:52:22;;;;;;;4.80;0.77;;;;;;;14.04;91.27;101724.03;6134576;28;20098;-93
2022/09/21 11:55:56;;;;;;;2.40;0.63;;;;;;;14.17;87.21;101726.56;6141126;28;20468;-94
2022/09/21 11:59:15;;;;;;;2.97;0.57;;;;;;;14.19;81.67;101716.84;6142916;28;20050;-95
2022/09/21 12:02:36;;;;;;;3.63;0.80;;;;;;;14.27;81.85;101719.72;6132529;28;20090;-94
2022/09/21 12:06:09;;;;;;;4.35;0.77;;;;;;;14.38;80.09;101719.75;6141370;28;20046;-94
2022/09/21 12:09:43;;;;;;;2.15;0.90;;;;;;;14.50;79.34;101717.13;6153377;28;20063;-93
2022/09/21 12:13:08;;;;;;;1.23;0.70;;;;;;;14.58;76.73;101712.19;6151315;28;20523;-94
2022/09/21 12:16:15;;;;;;;2.55;0.70;;;;;;;14.63;82.76;101710.03;6135564;28;20066;-94
2022/09/21 12:19:47;;;;;;;4.35;0.70;;;;;;;14.42;81.40;101708.13;6143964;28;20057;-93
2022/09/21 12:22:55;;;;;;;4.63;0.73;;;;;;;14.51;82.96;101698.78;6155677;28;20069;-93
2022/09/21 12:26:00;;;;;;;1.02;0.50;;;;;;;14.72;78.97;101698.09;6138174;28;20042;-93
2022/09/21 12:29:13;;;;;;;3.08;0.98;;;;;;;14.89;77.84;101697.59;6137488;28;20141;-92
2022/09/21 12:32:27;;;;;;;2.88;0.70;;;;;;;15.10;75.01;101705.50;6118819;29;20059;-93
2022/09/21 12:35:33;;;;;;;2.35;0.77;;;;;;;15.23;72.31;101694.94;6128605;28;20051;-93
2022/09/21 12:38:52;;;;;;;1.70;0.70;;;;;;;15.38;70.32;101695.47;6151694;28;20062;-93
2022/09/21 12:41:58;;;;;;;1.55;0.57;;;;;;;15.53;67.34;101694.25;6118302;28;20483;-93
2022/09/21 12:45:27;;;;;;;1.85;0.75;;;;;;;15.51;67.44;101696.97;6132153;28;20117;-93
2022/09/21 12:48:37;;;;;;;3.10;0.50;;;;;;;15.58;63.32;101693.88;6139954;29;20059;-92
2022/09/21 12:51:48;;;;;;;2.00;0.65;;;;;;;15.77;62.66;101693.22;6142366;28;20428;-92
2022/09/21 12:55:04;;;;;;;1.77;0.90;;;;;;;15.95;61.24;101694.31;6133297;28;20050;-92
2022/09/21 12:58:44;;;;;;;3.70;0.93;;;;;;;16.18;59.49;101694.19;6137951;28;20186;-92
2022/09/21 13:01:56;;;;;;;3.70;0.60;;;;;;;16.49;58.44;101676.72;6116662;28;20060;-92
2022/09/21 13:05:23;;;;;;;2.97;0.75;;;;;;;16.66;58.91;101675.28;6127779;29;20039;-92
2022/09/21 13:08:35;;;;;;;2.53;0.50;;;;;;;16.89;59.15;101679.34;6131177;29;20147;-92
2022/09/21 13:11:54;;;;;;;2.95;0.82;;;;;;;17.12;58.05;101679.13;6129928;29;20039;-93
2022/09/21 13:15:13;;;;;;;1.17;0.63;;;;;;;17.27;55.57;101676.97;6173302;28;20118;-93
2022/09/21 13:18:38;;;;;;;2.83;0.55;;;;;;;17.17;53.20;101669.91;6142273;28;20126;-92
2022/09/21 13:21:41;;;;;;;1.10;0.40;;;;;;;17.39;54.81;101671.44;6139372;28;20075;-92
2022/09/21 13:24:44;;;;;;;1.38;0.70;;;;;;;17.68;53.19;101675.81;6137459;28;20042;-92
2022/09/21 13:28:15;;;;;;;3.15;0.63;;;;;;;18.04;53.74;101678.72;6130918;28;20051;-93
2022/09/21 13:31:17;;;;;;;1.88;0.60;;;;;;;18.27;50.55;101672.16;6125310;29;20142;-92
2022/09/21 13:34:41;;;;;;;2.72;0.90;;;;;;;18.38;53.58;101675.56;6134103;29;20043;-92
2022/09/21 13:38:22;;;;;;;2.30;0.55;;;;;;;17.68;52.78;101670.59;6134271;28;20051;-94
2022/09/21 13:41:26;;;;;;;2.10;0.60;;;;;;;16.72;56.70;101667.72;6132990;28;20055;-92
2022/09/21 13:44:48;;;;;;;3.55;0.80;;;;;;;16.10;59.32;101663.50;6129519;28;20082;-93
2022/09/21 13:47:53;;;;;;;1.08;0.57;;;;;;;16.29;60.58;101657.50;6134675;28;20043;-93
2022/09/21 13:50:58;;;;;;;4.20;0.95;;;;;;;16.90;59.59;101654.88;6128889;28;20126;-93
2022/09/21 13:54:03;;;;;;;3.25;0.75;;;;;;;17.06;57.36;101653.50;6127031;28;20386;-94
2022/09/21 13:57:35;;;;;;;2.25;0.70;;;;;;;17.04;55.91;101652.81;6138953;28;20051;-95
2022/09/21 14:00:42;;;;;;;3.20;0.75;;;;;;;17.33;54.26;101648.44;6154370;28;20039;-95
2022/09/21 14:03:49;;;;;;;2.58;0.68;;;;;;;17.28;56.20;101645.41;6153205;28;20043;-95
2022/09/21 14:06:54;;;;;;;1.17;0.60;;;;;;;17.48;57.37;101640.97;6133491;29;20047;-95
2022/09/21 14:10:07;;;;;;;5.07;1.30;;;;;;;17.76;55.86;101646.31;6140390;28;20039;-95
2022/09/21 14:13:35;;;;;;;3.35;1.00;;;;;;;17.60;53.89;101644.28;6140010;28;20503;-94
2022/09/21 14:16:44;;;;;;;1.60;0.70;;;;;;;17.52;55.76;101634.50;6137820;28;20537;-95
2022/09/21 14:19:46;;;;;;;2.85;1.00;;;;;;;17.70;57.69;101637.25;6130214;28;20094;-95
2022/09/21 14:23:13;;;;;;;5.13;1.08;;;;;;;17.84;55.75;101642.06;6130891;28;20561;-96
2022/09/21 14:26:40;;;;;;;1.30;0.60;;;;;;;17.18;55.55;101642.78;6129923;28;20496;-96
2022/09/21 14:29:48;;;;;;;3.58;1.00;;;;;;;16.58;57.31;101637.53;6127100;28;20485;-96
2022/09/21 14:32:59;;;;;;;3.30;0.90;;;;;;;16.06;63.09;101639.38;6126610;28;20058;-95
2022/09/21 14:36:07;;;;;;;2.30;0.90;;;;;;;15.67;66.63;101638.28;6129022;28;20068;-95
2022/09/21 14:39:21;;;;;;;3.50;0.70;;;;;;;15.29;67.20;101635.25;6134205;28;20408;-95
2022/09/21 14:42:28;;;;;;;3.42;0.98;;;;;;;14.96;69.00;101627.56;6122389;28;20552;-95
2022/09/21 14:46:07;;;;;;;5.00;1.20;;;;;;;14.69;70.14;101628.81;6130760;28;20051;-94
2022/09/21 14:49:55;;;;;;;2.20;0.60;;;;;;;14.77;71.47;101623.81;6109805;29;20195;-95
2022/09/21 14:53:07;;;;;;;4.43;0.95;;;;;;;14.79;71.41;101618.47;6111692;29;20051;-94
2022/09/21 14:56:34;;;;;;;3.55;0.80;;;;;;;14.61;74.54;101615.56;6110646;29;20051;-94
2022/09/21 14:59:43;;;;;;;1.95;0.70;;;;;;;14.46;74.21;101612.34;6107955;29;20051;-94
2022/09/21 15:02:47;;;;;;;4.95;0.80;;;;;;;14.34;75.75;101608.91;6095166;29;20135;-95